createdAt,value
2022-12-13T00:02:48.832Z,29.31135
2022-12-13T00:07:49.811Z,29.19782
2022-12-13T00:12:50.950Z,28.92936
2022-12-13T00:17:51.871Z,29.0045
2022-12-13T00:22:52.831Z,29.00233
2022-12-13T00:27:53.734Z,29.0192
2022-12-13T00:32:54.632Z,29.04296
2022-12-13T00:37:55.625Z,29.01924
2022-12-13T00:42:56.529Z,29.00714
2022-12-13T00:47:57.985Z,28.97832
2022-12-13T00:52:58.935Z,29.04279
2022-12-13T00:57:59.851Z,29.07349
2022-12-13T01:03:00.815Z,29.19838
2022-12-13T01:08:01.844Z,29.3445
2022-12-13T01:13:02.908Z,29.36695
2022-12-13T01:18:03.832Z,29.35674
2022-12-13T01:23:04.774Z,29.35714
2022-12-13T01:28:05.717Z,29.34969
2022-12-13T01:33:14.155Z,29.2064
2022-12-13T01:38:16.344Z,29.13837
2022-12-13T01:43:17.375Z,29.20857
2022-12-13T01:48:18.305Z,29.4794
2022-12-13T01:53:19.243Z,29.5879
2022-12-13T01:58:20.176Z,29.69671
2022-12-13T02:03:21.959Z,29.74736
2022-12-13T02:08:23.163Z,29.86564
2022-12-13T02:13:24.084Z,29.8716
2022-12-13T02:18:25.049Z,29.81901
2022-12-13T02:23:25.976Z,29.68665
2022-12-13T02:28:31.559Z,29.66888
2022-12-13T02:33:33.291Z,29.74909
2022-12-13T02:38:34.181Z,29.98404
2022-12-13T02:43:35.158Z,30.24836
2022-12-13T02:48:36.236Z,30.44907
2022-12-13T02:53:37.375Z,30.67893
2022-12-13T02:58:38.362Z,30.93717
2022-12-13T03:03:39.311Z,31.1959
2022-12-13T03:08:40.402Z,31.32118
2022-12-13T03:13:41.339Z,31.35472
2022-12-13T03:18:42.244Z,31.4516
2022-12-13T03:23:43.172Z,31.57844
2022-12-13T03:28:44.085Z,31.85469
2022-12-13T03:33:45.047Z,32.01521
2022-12-13T03:38:45.976Z,32.14721
2022-12-13T03:43:46.904Z,32.25626
2022-12-13T03:48:47.785Z,32.3362
2022-12-13T03:53:48.691Z,32.41593
2022-12-13T03:58:49.612Z,32.51267
2022-12-13T04:03:50.546Z,32.44313
2022-12-13T04:08:51.580Z,32.3627
2022-12-13T04:13:52.705Z,32.42497
2022-12-13T04:18:53.614Z,32.28645
2022-12-13T04:23:54.506Z,32.27491
2022-12-13T04:28:55.410Z,32.29198
2022-12-13T04:33:57.133Z,32.31088
2022-12-13T04:38:58.618Z,32.35707
2022-12-13T04:44:01.783Z,32.34458
2022-12-13T04:49:02.691Z,32.21875
2022-12-13T04:54:12.997Z,32.21352
2022-12-13T04:59:25.439Z,32.25336
2022-12-13T05:04:32.368Z,32.1157
2022-12-13T05:09:33.724Z,32.02988
2022-12-13T05:14:34.618Z,32.08842
2022-12-13T05:19:35.551Z,32.09937
2022-12-13T05:24:36.499Z,32.06933
2022-12-13T05:29:37.416Z,32.03403
2022-12-13T05:34:38.711Z,32.13095
2022-12-13T05:39:39.738Z,31.8296
2022-12-13T05:44:40.692Z,31.82956
2022-12-13T05:49:41.578Z,31.66916
2022-12-13T05:54:42.981Z,31.74543
2022-12-13T05:59:44.311Z,31.77403
2022-12-13T06:04:45.346Z,31.74559
2022-12-13T06:09:46.345Z,31.75757
2022-12-13T06:14:47.263Z,31.77032
2022-12-13T06:19:48.188Z,31.81678
2022-12-13T06:24:49.167Z,31.82971
2022-12-13T06:29:50.116Z,31.98004
2022-12-13T06:34:51.052Z,31.95273
2022-12-13T06:39:52.007Z,32.06173
2022-12-13T06:44:56.010Z,31.95796
2022-12-13T06:49:57.530Z,31.91762
2022-12-13T06:55:06.690Z,31.98627
2022-12-13T07:00:07.615Z,31.92271
2022-12-13T07:05:08.572Z,31.94066
2022-12-13T07:10:12.586Z,31.97461
2022-12-13T07:15:23.180Z,31.91749
2022-12-13T07:20:24.071Z,31.98544
2022-12-13T07:25:27.842Z,32.08295
2022-12-13T07:30:29.659Z,31.94376
2022-12-13T07:35:30.611Z,31.84619
2022-12-13T07:40:31.523Z,31.88142
2022-12-13T07:45:32.450Z,31.89864
2022-12-13T07:50:37.262Z,31.98402
2022-12-13T07:55:38.845Z,31.8856
2022-12-13T08:00:39.796Z,31.7927
2022-12-13T08:05:40.833Z,31.80355
2022-12-13T08:10:41.849Z,31.82392
2022-12-13T08:15:42.879Z,31.6799
2022-12-13T08:20:43.832Z,31.69554
2022-12-13T08:25:44.771Z,31.47583
2022-12-13T08:30:45.717Z,31.36543
2022-12-13T08:35:46.589Z,31.30986
2022-12-13T08:40:47.514Z,31.35623
2022-12-13T08:45:52.584Z,31.4296
2022-12-13T08:51:02.381Z,31.31479
2022-12-13T08:56:04.333Z,31.23148
2022-12-13T09:01:05.282Z,31.00232
2022-12-13T09:06:06.199Z,31.0941
2022-12-13T09:11:11.527Z,30.97169
2022-12-13T09:16:25.202Z,30.90257
2022-12-13T09:21:31.822Z,30.80374
2022-12-13T09:26:37.751Z,30.68046
2022-12-13T09:31:39.652Z,30.51455
2022-12-13T09:36:40.580Z,30.14147
2022-12-13T09:41:41.520Z,30.08346
2022-12-13T09:46:44.405Z,29.99622
2022-12-13T09:51:55.309Z,29.95526
2022-12-13T09:57:11.411Z,29.86187
2022-12-13T10:02:12.458Z,29.8569
2022-12-13T10:07:13.675Z,29.78435
2022-12-13T10:12:14.581Z,29.67433
2022-12-13T10:17:15.502Z,29.6243
2022-12-13T10:22:16.365Z,29.57264
2022-12-13T10:27:17.282Z,29.63175
2022-12-13T10:32:18.366Z,29.64116
2022-12-13T10:37:19.233Z,29.61318
2022-12-13T10:42:23.067Z,29.71134
2022-12-13T10:47:25.144Z,29.49685
2022-12-13T10:52:30.862Z,29.60305
2022-12-13T10:57:32.609Z,29.42831
2022-12-13T11:02:33.589Z,29.37927
2022-12-13T11:07:34.527Z,29.26882
2022-12-13T11:12:35.437Z,29.23621
2022-12-13T11:17:36.347Z,29.18387
2022-12-13T11:22:37.300Z,29.16459
2022-12-13T11:27:38.265Z,29.23168
2022-12-13T11:32:39.249Z,29.12311
2022-12-13T11:37:40.216Z,28.81244
2022-12-13T11:42:41.137Z,28.87135
2022-12-13T11:47:42.028Z,28.74688
2022-12-13T11:52:42.929Z,28.83459
2022-12-13T11:57:43.870Z,28.79442
2022-12-13T12:02:44.858Z,28.79179
2022-12-13T12:08:12.600Z,28.6909
2022-12-13T12:13:32.582Z,28.65395
2022-12-13T12:18:33.518Z,28.69331
2022-12-13T12:23:38.583Z,28.77011
2022-12-13T12:28:43.906Z,28.67526
2022-12-13T12:33:45.630Z,28.64556
2022-12-13T12:38:46.568Z,28.62395
2022-12-13T12:43:47.500Z,28.68966
2022-12-13T12:49:00.383Z,28.69406
2022-12-13T12:54:02.609Z,28.61258
2022-12-13T12:59:03.790Z,28.68548
2022-12-13T13:04:04.732Z,28.55642
2022-12-13T13:09:05.663Z,28.40135
2022-12-13T13:14:06.698Z,28.40162
2022-12-13T13:19:07.590Z,28.42441
2022-12-13T13:24:08.509Z,28.23714
2022-12-13T13:29:09.448Z,28.414
2022-12-13T13:34:10.466Z,28.32637
2022-12-13T13:39:11.367Z,28.30066
2022-12-13T13:44:12.333Z,28.39443
2022-12-13T13:49:20.655Z,28.4807
2022-12-13T13:54:21.572Z,28.42967
2022-12-13T13:59:22.632Z,28.26667
2022-12-13T14:04:23.577Z,28.30205
2022-12-13T14:09:24.537Z,28.32806
2022-12-13T14:14:25.577Z,28.35314
2022-12-13T14:19:26.473Z,28.42249
2022-12-13T14:24:27.472Z,28.47863
2022-12-13T14:29:28.497Z,28.47291
2022-12-13T14:34:29.662Z,28.35975
2022-12-13T14:39:30.602Z,28.44004
2022-12-13T14:44:31.586Z,28.48055
2022-12-13T14:49:32.519Z,28.46874
2022-12-13T14:54:33.492Z,28.46679
2022-12-13T14:59:34.458Z,28.41875
2022-12-13T15:04:35.477Z,28.50697
2022-12-13T15:09:36.460Z,28.57834
2022-12-13T15:14:37.432Z,28.64708
2022-12-13T15:19:40.458Z,28.70483
2022-12-13T15:24:50.003Z,28.73342
2022-12-13T15:29:50.936Z,28.74886
2022-12-13T15:34:52.027Z,28.7264
2022-12-13T15:39:52.991Z,28.78961
2022-12-13T15:44:54.147Z,28.73912
2022-12-13T15:49:55.108Z,28.7675
2022-12-13T15:54:56.104Z,28.76927
2022-12-13T15:59:57.048Z,28.81201
2022-12-13T16:04:58.444Z,28.87546
2022-12-13T16:09:59.627Z,28.88146
2022-12-13T16:15:09.512Z,29.01479
2022-12-13T16:20:11.058Z,29.04978
2022-12-13T16:25:12.042Z,29.06057
2022-12-13T16:30:12.980Z,29.05986
2022-12-13T16:35:13.952Z,29.09423
2022-12-13T16:40:14.860Z,29.08274
2022-12-13T16:45:41.125Z,29.11422
2022-12-13T16:50:43.178Z,29.24965
2022-12-13T16:55:44.140Z,29.28042
2022-12-13T17:01:00.073Z,29.39245
2022-12-13T17:06:01.117Z,29.43965
2022-12-13T17:11:02.113Z,29.43543
2022-12-13T17:16:03.020Z,29.55133
2022-12-13T17:21:03.936Z,29.58814
2022-12-13T17:26:04.902Z,29.70657
2022-12-13T17:31:05.921Z,29.73177
2022-12-13T17:36:06.872Z,29.72869
2022-12-13T17:41:07.803Z,29.85769
2022-12-13T17:46:08.855Z,29.93991
2022-12-13T17:51:09.876Z,30.06813
2022-12-13T17:56:10.870Z,30.05714
2022-12-13T18:01:11.989Z,30.10456
2022-12-13T18:06:12.991Z,30.19937
2022-12-13T18:11:32.929Z,30.25875
2022-12-13T18:16:37.416Z,30.30779
2022-12-13T18:21:38.891Z,30.38202
2022-12-13T18:26:39.817Z,30.3818
2022-12-13T18:31:40.847Z,30.49507
2022-12-13T18:36:41.883Z,30.53661
2022-12-13T18:41:43.066Z,30.52503
2022-12-13T18:46:46.119Z,30.61765
2022-12-13T18:51:47.276Z,30.62476
2022-12-13T18:56:48.288Z,30.82062
2022-12-13T19:01:49.242Z,30.81542
2022-12-13T19:06:50.197Z,30.80429
2022-12-13T19:11:51.170Z,30.85787
2022-12-13T19:16:52.138Z,31.05899
2022-12-13T19:21:53.397Z,30.99065
2022-12-13T19:26:54.380Z,31.01902
2022-12-13T19:31:55.324Z,31.08824
2022-12-13T19:36:58.229Z,31.22087
2022-12-13T19:42:01.348Z,31.23921
2022-12-13T19:47:02.487Z,31.37182
2022-12-13T19:52:03.537Z,31.33247
2022-12-13T19:57:07.302Z,31.39517
2022-12-13T20:02:08.666Z,31.39037
2022-12-13T20:07:09.621Z,31.45444
2022-12-13T20:12:10.552Z,31.48974
2022-12-13T20:17:11.513Z,31.44439
2022-12-13T20:22:12.443Z,31.45613
2022-12-13T20:27:13.394Z,31.45682
2022-12-13T20:32:14.288Z,31.54852
2022-12-13T20:37:15.247Z,31.58404
2022-12-13T20:42:16.189Z,31.6311
2022-12-13T20:47:17.092Z,31.60306
2022-12-13T20:52:18.138Z,31.73452
2022-12-13T20:57:19.089Z,31.60959
2022-12-13T21:02:20.095Z,31.61084
2022-12-13T21:07:21.098Z,31.67421
2022-12-13T21:12:22.096Z,31.76624
2022-12-13T21:17:23.173Z,31.72732
2022-12-13T21:22:24.081Z,31.75032
2022-12-13T21:27:25.154Z,31.71668
2022-12-13T21:32:26.120Z,31.79728
2022-12-13T21:37:27.221Z,31.83195
2022-12-13T21:42:28.127Z,31.82641
2022-12-13T21:47:29.061Z,31.90651
2022-12-13T21:52:29.971Z,31.92386
2022-12-13T21:57:30.956Z,32.01581
2022-12-13T22:02:32.235Z,31.98736
2022-12-13T22:07:33.205Z,32.02754
2022-12-13T22:12:34.209Z,31.9881
2022-12-13T22:17:36.386Z,31.97199
2022-12-13T22:22:37.487Z,32.11498
2022-12-13T22:27:38.395Z,32.15527
2022-12-13T22:32:39.279Z,32.17828
2022-12-13T22:37:40.332Z,32.22944
2022-12-13T22:42:41.294Z,32.2981
2022-12-13T22:47:49.436Z,32.35495
2022-12-13T22:52:50.456Z,32.32107
2022-12-13T22:57:51.588Z,32.3728
2022-12-13T23:02:52.521Z,32.4248
2022-12-13T23:07:53.487Z,32.44831
2022-12-13T23:12:54.405Z,32.57937
2022-12-13T23:17:55.293Z,32.5055
2022-12-13T23:22:56.201Z,32.61364
2022-12-13T23:27:57.120Z,32.64786
2022-12-13T23:32:58.013Z,32.75033
2022-12-13T23:37:59.360Z,32.65936
2022-12-13T23:43:00.271Z,32.66543
2022-12-13T23:48:01.285Z,32.69964
2022-12-13T23:53:02.341Z,32.69987
2022-12-13T23:58:03.273Z,32.74568
